Time;durP1;ratioP1;P1;durP2;ratioP2;P2;SDS_P1;SDS_P2;PMS_P1;PMS_P2;Temp;Humidity;BMP_temperature;BMP_pressure;BME280_temperature;BME280_humidity;BME280_pressure;Samples;Min_cycle;Max_cycle;Signal;HPM_P1;HPM_P2
2021/11/30 00:00:00;;;;;;;;;;;;;;;;;;5119204;28;19920;-77
2021/11/30 00:02:26;;;;;;;;;;;;;;;;;;5120354;28;19916;-78
2021/11/30 00:04:52;;;;;;;;;;;;;;;;;;5105418;28;19920;-78
2021/11/30 00:07:17;;;;;;;;;;;;;;;;;;5101307;28;19980;-78
2021/11/30 00:12:16;;;;;;;;;;;;;;;;;;5100786;28;19916;-78
2021/11/30 00:14:42;;;;;;;;;;;;;;;;;;5100241;28;19923;-78
2021/11/30 00:17:09;;;;;;;;;;;;;;;;;;5099775;28;19920;-78
2021/11/30 00:19:34;;;;;;;;;;;;;;;;;;5099582;28;19916;-77
2021/11/30 00:22:00;;;;;;;;;;;;;;;;;;5100726;28;19923;-78
2021/11/30 00:24:27;;;;;;;;;;;;;;;;;;5100703;28;20779;-78
2021/11/30 00:26:53;;;;;;;;;;;;;;;;;;5099605;28;19916;-80
2021/11/30 00:29:18;;;;;;;;;;;;;;;;;;5097180;28;20404;-77
2021/11/30 00:31:43;;;;;;;;;;;;;;;;;;5097074;28;19930;-77
2021/11/30 00:34:09;;;;;;;;;;;;;;;;;;5100530;28;19916;-78
2021/11/30 00:36:34;;;;;;;;;;;;;;;;;;5119398;28;19916;-79
2021/11/30 00:38:59;;;;;;;;;;;;;;;;;;5122160;28;19915;-79
2021/11/30 00:41:25;;;;;;;;;;;;;;;;;;5121593;28;19916;-79
2021/11/30 00:43:52;;;;;;;;;;;;;;;;;;5121656;28;19920;-80
2021/11/30 00:46:21;;;;;;;;;;;;;;;;;;5121301;28;19976;-78
2021/11/30 00:48:46;;;;;;;;;;;;;;;;;;5122876;28;19915;-81
2021/11/30 00:51:17;;;;;;;;;;;;;;;;;;5121289;28;20304;-79
2021/11/30 00:53:44;;;;;;;;;;;;;;;;;;5120424;28;19963;-78
2021/11/30 00:56:10;;;;;;;;;;;;;;;;;;5120796;28;20434;-81
2021/11/30 00:58:35;;;;;;;;;;;;;;;;;;5118305;28;20388;-81
2021/11/30 01:01:01;;;;;;;;;;;;;;;;;;5119761;28;19916;-81
2021/11/30 01:03:26;;;;;;;;;;;;;;;;;;5115078;28;20347;-81
2021/11/30 01:05:51;;;;;;;;;;;;;;;;;;5100217;28;20332;-81
2021/11/30 01:08:17;;;;;;;;;;;;;;;;;;5099969;28;20003;-81
2021/11/30 01:10:42;;;;;;;;;;;;;;;;;;5102379;28;19916;-81
2021/11/30 01:13:08;;;;;;;;;;;;;;;;;;5102344;28;20170;-81
2021/11/30 01:15:33;;;;;;;;;;;;;;;;;;5087677;28;19970;-81
2021/11/30 01:17:59;;;;;;;;;;;;;;;;;;5106568;28;20033;-79
2021/11/30 01:20:25;;;;;;;;;;;;;;;;;;5107494;28;19920;-79
2021/11/30 01:22:52;;;;;;;;;;;;;;;;;;5105863;28;19927;-78
2021/11/30 01:25:18;;;;;;;;;;;;;;;;;;5103800;28;19924;-78
2021/11/30 01:27:43;;;;;;;;;;;;;;;;;;5101243;28;19937;-78
2021/11/30 01:30:09;;;;;;;;;;;;;;;;;;5100268;28;19923;-78
2021/11/30 01:32:35;;;;;;;;;;;;;;;;;;5097589;28;19912;-78
2021/11/30 01:35:00;;;;;;;;;;;;;;;;;;5078256;28;19916;-78
2021/11/30 01:37:25;;;;;;;;;;;;;;;;;;5077608;28;20256;-78
2021/11/30 01:39:51;;;;;;;;;;;;;;;;;;5079647;28;19948;-80
2021/11/30 01:42:18;;;;;;;;;;;;;;;;;;5101436;28;19955;-80
2021/11/30 01:44:54;;;;;;;;;;;;;;;;;;5100668;28;20290;-80
2021/11/30 01:49:56;;;;;;;;;;;;;;;;;;5101015;28;19920;-80
2021/11/30 01:52:22;;;;;;;;;;;;;;;;;;5099202;28;20450;-80
2021/11/30 01:54:50;;;;;;;;;;;;;;;;;;5098379;28;19920;-80
2021/11/30 01:57:16;;;;;;;;;;;;;;;;;;5100618;28;19916;-80
2021/11/30 01:59:43;;;;;;;;;;;;;;;;;;5098770;28;20373;-77
2021/11/30 02:02:08;;;;;;;;;;;;;;;;;;5099089;28;20286;-80
2021/11/30 02:04:35;;;;;;;;;;;;;;;;;;5100544;28;19920;-81
2021/11/30 02:07:00;;;;;;;;;;;;;;;;;;5083876;28;19956;-81
2021/11/30 02:09:27;;;;;;;;;;;;;;;;;;5082067;28;20408;-78
2021/11/30 02:11:52;;;;;;;;;;;;;;;;;;5085237;28;19966;-81
2021/11/30 02:14:18;;;;;;;;;;;;;;;;;;5084538;28;19917;-81
2021/11/30 02:16:45;;;;;;;;;;;;;;;;;;5083845;28;19938;-81
2021/11/30 02:19:11;;;;;;;;;;;;;;;;;;5086075;28;20270;-81
2021/11/30 02:21:39;;;;;;;;;;;;;;;;;;5086333;28;19923;-81
2021/11/30 02:24:05;;;;;;;;;;;;;;;;;;5084883;28;19912;-81
2021/11/30 02:26:32;;;;;;;;;;;;;;;;;;5085451;28;19916;-81
2021/11/30 02:28:57;;;;;;;;;;;;;;;;;;5086949;28;19920;-81
2021/11/30 02:31:27;;;;;;;;;;;;;;;;;;5086812;28;19923;-81
2021/11/30 02:33:53;;;;;;;;;;;;;;;;;;5085973;28;19980;-81
2021/11/30 02:36:28;;;;;;;;;;;;;;;;;;5105950;28;19916;-80
2021/11/30 02:38:55;;;;;;;;;;;;;;;;;;5104292;28;20322;-80
2021/11/30 02:41:21;;;;;;;;;;;;;;;;;;5105160;28;19923;-80
2021/11/30 02:43:47;;;;;;;;;;;;;;;;;;5105135;28;19920;-80
2021/11/30 02:46:27;;;;;;;;;;;;;;;;;;5103936;28;19920;-81
2021/11/30 02:48:52;;;;;;;;;;;;;;;;;;5103479;28;19915;-80
2021/11/30 02:51:17;;;;;;;;;;;;;;;;;;5103026;28;19991;-80
2021/11/30 02:53:43;;;;;;;;;;;;;;;;;;5087502;28;19936;-80
2021/11/30 02:56:08;;;;;;;;;;;;;;;;;;5103222;28;19971;-80
2021/11/30 02:58:33;;;;;;;;;;;;;;;;;;5103993;28;19916;-80
2021/11/30 03:01:01;;;;;;;;;;;;;;;;;;5104463;28;19916;-80
2021/11/30 03:03:27;;;;;;;;;;;;;;;;;;5104168;28;19924;-80
2021/11/30 03:05:53;;;;;;;;;;;;;;;;;;5104518;28;19920;-80
2021/11/30 03:08:18;;;;;;;;;;;;;;;;;;5108002;28;20411;-80
2021/11/30 03:10:43;;;;;;;;;;;;;;;;;;5124928;28;19915;-81
2021/11/30 03:13:09;;;;;;;;;;;;;;;;;;5123494;28;19916;-81
2021/11/30 03:15:34;;;;;;;;;;;;;;;;;;5124806;28;19915;-81
2021/11/30 03:18:00;;;;;;;;;;;;;;;;;;5126355;28;19920;-81
2021/11/30 03:20:25;;;;;;;;;;;;;;;;;;5126516;28;19916;-82
2021/11/30 03:22:51;;;;;;;;;;;;;;;;;;5126962;28;19969;-81
2021/11/30 03:25:17;;;;;;;;;;;;;;;;;;5124271;28;19920;-80
2021/11/30 03:27:42;;;;;;;;;;;;;;;;;;5125216;28;19920;-80
2021/11/30 03:30:09;;;;;;;;;;;;;;;;;;5124049;28;19912;-79
2021/11/30 03:35:19;;;;;;;;;;;;;;;;;;5109905;28;19916;-80
2021/11/30 03:37:44;;;;;;;;;;;;;;;;;;5101546;28;20010;-80
2021/11/30 03:40:11;;;;;;;;;;;;;;;;;;5101426;28;19916;-82
2021/11/30 03:42:38;;;;;;;;;;;;;;;;;;5101396;28;19980;-80
2021/11/30 03:45:04;;;;;;;;;;;;;;;;;;5101600;28;19920;-82
2021/11/30 03:47:29;;;;;;;;;;;;;;;;;;5102537;28;20286;-83
2021/11/30 03:49:54;;;;;;;;;;;;;;;;;;5104536;28;19959;-83
2021/11/30 03:52:20;;;;;;;;;;;;;;;;;;5105508;28;19916;-82
2021/11/30 03:54:45;;;;;;;;;;;;;;;;;;5102557;28;19947;-81
2021/11/30 03:57:10;;;;;;;;;;;;;;;;;;5081944;28;19923;-82
2021/11/30 03:59:36;;;;;;;;;;;;;;;;;;5084304;28;19916;-78
2021/11/30 04:02:01;;;;;;;;;;;;;;;;;;5077502;28;19916;-77
2021/11/30 04:04:33;;;;;;;;;;;;;;;;;;5077069;28;19928;-78
2021/11/30 04:06:58;;;;;;;;;;;;;;;;;;5075740;28;19924;-78
2021/11/30 04:09:24;;;;;;;;;;;;;;;;;;5076319;28;19966;-78
2021/11/30 04:11:49;;;;;;;;;;;;;;;;;;5076699;28;19916;-78
2021/11/30 04:14:15;;;;;;;;;;;;;;;;;;5097755;28;19955;-78
2021/11/30 04:16:41;;;;;;;;;;;;;;;;;;5097768;28;19916;-78
2021/11/30 04:19:06;;;;;;;;;;;;;;;;;;5097399;28;20057;-78
2021/11/30 04:21:32;;;;;;;;;;;;;;;;;;5096531;28;19935;-78
2021/11/30 04:23:57;;;;;;;;;;;;;;;;;;5097080;28;20328;-78
2021/11/30 04:26:23;;;;;;;;;;;;;;;;;;5098023;28;19920;-78
2021/11/30 04:28:48;;;;;;;;;;;;;;;;;;5097276;28;19922;-78
2021/11/30 04:31:14;;;;;;;;;;;;;;;;;;5098631;28;19916;-78
2021/11/30 04:33:39;;;;;;;;;;;;;;;;;;5097200;28;19916;-78
2021/11/30 04:36:08;;;;;;;;;;;;;;;;;;5098406;28;19955;-78
2021/11/30 04:38:33;;;;;;;;;;;;;;;;;;5097579;28;19923;-78
2021/11/30 04:40:59;;;;;;;;;;;;;;;;;;5098394;28;19916;-79
2021/11/30 04:43:25;;;;;;;;;;;;;;;;;;5098082;28;20046;-78
2021/11/30 04:45:57;;;;;;;;;;;;;;;;;;5098217;28;19960;-78
2021/11/30 04:48:24;;;;;;;;;;;;;;;;;;5097015;28;19923;-78
2021/11/30 04:50:51;;;;;;;;;;;;;;;;;;5097197;28;19916;-78
2021/11/30 04:53:19;;;;;;;;;;;;;;;;;;5097653;28;19916;-78
2021/11/30 04:55:44;;;;;;;;;;;;;;;;;;5097102;28;19962;-78
2021/11/30 04:58:10;;;;;;;;;;;;;;;;;;5096728;28;20336;-77
2021/11/30 05:00:36;;;;;;;;;;;;;;;;;;5095639;28;19920;-78
2021/11/30 05:03:01;;;;;;;;;;;;;;;;;;5096752;28;19916;-78
2021/11/30 05:05:26;;;;;;;;;;;;;;;;;;5096610;28;19920;-78
2021/11/30 05:07:52;;;;;;;;;;;;;;;;;;5097493;28;19916;-78
2021/11/30 05:10:18;;;;;;;;;;;;;;;;;;5097830;28;19974;-78
2021/11/30 05:12:44;;;;;;;;;;;;;;;;;;5097039;28;19916;-78
2021/11/30 05:15:10;;;;;;;;;;;;;;;;;;5098798;28;19923;-78
2021/11/30 05:17:35;;;;;;;;;;;;;;;;;;5097076;28;20018;-78
2021/11/30 05:20:03;;;;;;;;;;;;;;;;;;5097254;28;19961;-78
2021/11/30 05:22:29;;;;;;;;;;;;;;;;;;5099136;28;19955;-78
2021/11/30 05:24:54;;;;;;;;;;;;;;;;;;5099541;28;19927;-77
2021/11/30 05:27:20;;;;;;;;;;;;;;;;;;5098502;28;19916;-78
2021/11/30 05:29:46;;;;;;;;;;;;;;;;;;5098964;28;20354;-78
2021/11/30 05:32:11;;;;;;;;;;;;;;;;;;5098150;28;19916;-78
2021/11/30 05:34:36;;;;;;;;;;;;;;;;;;5096803;28;20410;-78
2021/11/30 05:37:02;;;;;;;;;;;;;;;;;;5096028;28;19923;-78
2021/11/30 05:39:28;;;;;;;;;;;;;;;;;;5095710;28;19920;-78
2021/11/30 05:41:53;;;;;;;;;;;;;;;;;;5097706;28;20023;-78
2021/11/30 05:44:19;;;;;;;;;;;;;;;;;;5097625;28;19967;-78
2021/11/30 05:46:46;;;;;;;;;;;;;;;;;;5098251;28;20477;-78
2021/11/30 05:49:14;;;;;;;;;;;;;;;;;;5097657;28;20007;-78
2021/11/30 05:51:40;;;;;;;;;;;;;;;;;;5097143;28;19916;-77
2021/11/30 05:54:05;;;;;;;;;;;;;;;;;;5096155;28;19984;-78
2021/11/30 05:56:30;;;;;;;;;;;;;;;;;;5096418;28;20402;-78
2021/11/30 05:58:57;;;;;;;;;;;;;;;;;;5095032;28;19923;-78
2021/11/30 06:01:32;;;;;;;;;;;;;;;;;;5094652;28;20270;-78
2021/11/30 06:03:59;;;;;;;;;;;;;;;;;;5093908;28;20015;-78
2021/11/30 06:06:25;;;;;;;;;;;;;;;;;;5094979;28;19923;-78
2021/11/30 06:08:50;;;;;;;;;;;;;;;;;;5095989;28;19920;-78
2021/11/30 06:11:17;;;;;;;;;;;;;;;;;;5094754;28;19912;-78
2021/11/30 06:13:42;;;;;;;;;;;;;;;;;;5097266;28;20030;-78
2021/11/30 06:16:08;;;;;;;;;;;;;;;;;;5098057;28;19946;-78
2021/11/30 06:18:33;;;;;;;;;;;;;;;;;;5100619;28;19916;-78
2021/11/30 06:20:58;;;;;;;;;;;;;;;;;;5100255;28;19916;-78
2021/11/30 06:23:24;;;;;;;;;;;;;;;;;;5083109;28;19969;-78
2021/11/30 06:25:49;;;;;;;;;;;;;;;;;;5100189;28;19923;-78
2021/11/30 06:28:15;;;;;;;;;;;;;;;;;;5098609;28;19983;-78
2021/11/30 06:30:40;;;;;;;;;;;;;;;;;;5100152;28;19916;-79
2021/11/30 06:33:05;;;;;;;;;;;;;;;;;;5099121;28;19916;-78
2021/11/30 06:35:31;;;;;;;;;;;;;;;;;;5100672;28;19923;-78
2021/11/30 06:37:56;;;;;;;;;;;;;;;;;;5100426;28;19988;-78
2021/11/30 06:40:21;;;;;;;;;;;;;;;;;;5100789;28;20434;-78
2021/11/30 06:42:47;;;;;;;;;;;;;;;;;;5101083;28;19919;-78
2021/11/30 06:45:12;;;;;;;;;;;;;;;;;;5099434;28;19927;-78
2021/11/30 06:47:38;;;;;;;;;;;;;;;;;;5100794;28;20006;-78
2021/11/30 06:50:04;;;;;;;;;;;;;;;;;;5103593;28;19923;-78
2021/11/30 06:52:29;;;;;;;;;;;;;;;;;;5105278;28;19915;-78
2021/11/30 06:54:55;;;;;;;;;;;;;;;;;;5101230;28;19971;-78
2021/11/30 06:57:21;;;;;;;;;;;;;;;;;;5098704;28;19916;-79
2021/11/30 06:59:47;;;;;;;;;;;;;;;;;;5099068;28;19916;-78
2021/11/30 07:02:13;;;;;;;;;;;;;;;;;;5097655;28;19919;-78
2021/11/30 07:04:42;;;;;;;;;;;;;;;;;;5098176;28;19924;-78
2021/11/30 07:07:24;;;;;;;;;;;;;;;;;;5100138;28;19927;-84
2021/11/30 07:13:04;;;;;;;;;;;;;;;;;;5101398;28;20336;-79
2021/11/30 07:15:00;;;;;;;;;;;;;;;;;;5098697;28;20001;-83
2021/11/30 07:17:25;;;;;;;;;;;;;;;;;;5104484;28;19921;-79
2021/11/30 07:19:50;;;;;;;;;;;;;;;;;;5105154;28;19934;-80
2021/11/30 07:22:16;;;;;;;;;;;;;;;;;;5101771;28;19977;-78
2021/11/30 07:24:41;;;;;;;;;;;;;;;;;;5101479;28;19920;-79
2021/11/30 07:27:06;;;;;;;;;;;;;;;;;;5103346;28;19916;-79
2021/11/30 07:29:32;;;;;;;;;;;;;;;;;;5103357;28;19916;-80
2021/11/30 07:31:59;;;;;;;;;;;;;;;;;;5103016;28;19920;-79
2021/11/30 07:34:24;;;;;;;;;;;;;;;;;;5097253;28;19916;-78
2021/11/30 07:36:49;;;;;;;;;;;;;;;;;;5095386;28;19965;-77
2021/11/30 07:39:14;;;;;;;;;;;;;;;;;;5096192;28;19916;-78
2021/11/30 07:41:40;;;;;;;;;;;;;;;;;;5095042;28;19927;-79
2021/11/30 07:44:05;;;;;;;;;;;;;;;;;;5100935;28;19927;-79
2021/11/30 07:46:31;;;;;;;;;;;;;;;;;;5104241;28;19927;-79
2021/11/30 07:48:56;;;;;;;;;;;;;;;;;;5103938;28;19923;-79
2021/11/30 07:51:22;;;;;;;;;;;;;;;;;;5102210;28;19916;-81
2021/11/30 07:53:47;;;;;;;;;;;;;;;;;;5101250;28;19916;-80
2021/11/30 07:56:13;;;;;;;;;;;;;;;;;;5102098;28;20293;-80
2021/11/30 07:58:38;;;;;;;;;;;;;;;;;;5100062;28;19920;-79
2021/11/30 08:01:04;;;;;;;;;;;;;;;;;;5104555;28;19923;-80
2021/11/30 08:03:29;;;;;;;;;;;;;;;;;;5101273;28;19937;-84
2021/11/30 08:05:55;;;;;;;;;;;;;;;;;;5102311;28;20023;-86
2021/11/30 08:08:20;;;;;;;;;;;;;;;;;;5101073;28;20330;-86
2021/11/30 08:10:46;;;;;;;;;;;;;;;;;;5101249;28;19923;-83
2021/11/30 08:13:11;;;;;;;;;;;;;;;;;;5099404;28;19916;-82
2021/11/30 08:15:37;;;;;;;;;;;;;;;;;;5099530;28;19920;-82
2021/11/30 08:18:03;;;;;;;;;;;;;;;;;;5100153;28;19916;-80
2021/11/30 08:20:29;;;;;;;;;;;;;;;;;;5101078;28;19920;-82
2021/11/30 08:22:54;;;;;;;;;;;;;;;;;;5099976;28;20014;-83
2021/11/30 08:25:19;;;;;;;;;;;;;;;;;;5098732;28;19920;-85
2021/11/30 08:27:45;;;;;;;;;;;;;;;;;;5099394;28;19916;-83
2021/11/30 08:30:51;;;;;;;;;;;;;;;;;;5081728;28;19923;-82
2021/11/30 08:33:41;;;;;;;;;;;;;;;;;;5108191;28;19916;-82
2021/11/30 08:36:06;;;;;;;;;;;;;;;;;;5098666;28;20006;-81
2021/11/30 08:38:32;;;;;;;;;;;;;;;;;;5097082;28;20383;-81
2021/11/30 08:40:58;;;;;;;;;;;;;;;;;;5097510;28;19920;-81
2021/11/30 08:43:24;;;;;;;;;;;;;;;;;;5097466;28;19959;-81
2021/11/30 08:45:49;;;;;;;;;;;;;;;;;;5096351;28;19920;-78
2021/11/30 08:48:15;;;;;;;;;;;;;;;;;;5099921;28;20377;-82
2021/11/30 08:50:40;;;;;;;;;;;;;;;;;;5081238;28;19920;-79
2021/11/30 08:53:05;;;;;;;;;;;;;;;;;;5076772;28;19916;-78
2021/11/30 08:55:31;;;;;;;;;;;;;;;;;;5076488;28;19924;-78
2021/11/30 08:57:56;;;;;;;;;;;;;;;;;;5078435;28;19952;-78
2021/11/30 09:00:24;;;;;;;;;;;;;;;;;;5077527;28;20401;-78
2021/11/30 09:02:50;;;;;;;;;;;;;;;;;;5074597;28;19920;-78
2021/11/30 09:05:16;;;;;;;;;;;;;;;;;;5100422;28;20011;-78
2021/11/30 09:07:41;;;;;;;;;;;;;;;;;;5099678;28;20369;-79
2021/11/30 09:10:07;;;;;;;;;;;;;;;;;;5098722;28;19916;-81
2021/11/30 09:12:32;;;;;;;;;;;;;;;;;;5097190;28;19919;-80
2021/11/30 09:14:58;;;;;;;;;;;;;;;;;;5097439;28;19924;-78
2021/11/30 09:17:23;;;;;;;;;;;;;;;;;;5100574;28;19920;-79
2021/11/30 09:19:49;;;;;;;;;;;;;;;;;;5102884;28;19920;-81
2021/11/30 09:22:15;;;;;;;;;;;;;;;;;;5097929;28;19920;-77
2021/11/30 09:24:40;;;;;;;;;;;;;;;;;;5105662;28;20404;-83
2021/11/30 09:27:06;;;;;;;;;;;;;;;;;;5102916;28;19923;-82
2021/11/30 09:29:32;;;;;;;;;;;;;;;;;;5100795;28;19920;-85
2021/11/30 09:31:57;;;;;;;;;;;;;;;;;;5099938;28;20370;-78
2021/11/30 09:34:24;;;;;;;;;;;;;;;;;;5087545;28;19916;-79
2021/11/30 09:36:50;;;;;;;;;;;;;;;;;;5099119;28;19912;-78
2021/11/30 09:39:15;;;;;;;;;;;;;;;;;;5105501;28;19923;-79
2021/11/30 09:41:43;;;;;;;;;;;;;;;;;;5106149;28;19916;-78
2021/11/30 09:44:10;;;;;;;;;;;;;;;;;;5104547;28;19947;-77
2021/11/30 09:46:36;;;;;;;;;;;;;;;;;;5099974;28;20358;-78
2021/11/30 09:49:03;;;;;;;;;;;;;;;;;;5102138;28;21357;-78
2021/11/30 09:51:28;;;;;;;;;;;;;;;;;;5102814;28;20007;-79
2021/11/30 09:53:53;;;;;;;;;;;;;;;;;;5102264;28;20447;-80
2021/11/30 09:56:19;;;;;;;;;;;;;;;;;;5101703;28;19968;-80
2021/11/30 09:58:46;;;;;;;;;;;;;;;;;;5100679;28;19967;-80
2021/11/30 10:01:12;;;;;;;;;;;;;;;;;;5100996;28;20015;-79
2021/11/30 10:03:40;;;;;;;;;;;;;;;;;;5103494;28;19935;-78
2021/11/30 10:06:05;;;;;;;;;;;;;;;;;;5106486;28;20014;-78
2021/11/30 10:08:32;;;;;;;;;;;;;;;;;;5099865;28;19916;-80
2021/11/30 10:10:58;;;;;;;;;;;;;;;;;;5103907;28;19927;-81
2021/11/30 10:13:23;;;;;;;;;;;;;;;;;;5100532;28;20309;-79
2021/11/30 10:15:55;;;;;;;;;;;;;;;;;;5099678;28;19923;-80
2021/11/30 10:18:24;;;;;;;;;;;;;;;;;;5098231;28;20010;-79
2021/11/30 10:20:52;;;;;;;;;;;;;;;;;;5098372;28;20329;-78
2021/11/30 10:23:17;;;;;;;;;;;;;;;;;;5098734;28;19959;-77
2021/11/30 10:25:45;;;;;;;;;;;;;;;;;;5095529;28;20365;-79
2021/11/30 10:28:12;;;;;;;;;;;;;;;;;;5095889;28;19915;-82
2021/11/30 10:30:40;;;;;;;;;;;;;;;;;;5101679;28;20018;-80
2021/11/30 10:33:07;;;;;;;;;;;;;;;;;;5098861;28;19969;-86
2021/11/30 10:35:32;;;;;;;;;;;;;;;;;;5082936;28;19976;-84
2021/11/30 10:37:59;;;;;;;;;;;;;;;;;;5079781;28;20358;-82
2021/11/30 10:40:28;;;;;;;;;;;;;;;;;;5083467;28;19920;-82
2021/11/30 10:42:55;;;;;;;;;;;;;;;;;;5083198;28;19917;-85
2021/11/30 10:45:24;;;;;;;;;;;;;;;;;;5066967;28;19924;-84
2021/11/30 10:47:49;;;;;;;;;;;;;;;;;;5071700;28;19986;-86
2021/11/30 10:50:21;;;;;;;;;;;;;;;;;;5086287;28;19980;-85
2021/11/30 10:52:46;;;;;;;;;;;;;;;;;;5088963;28;19922;-85
2021/11/30 10:55:14;;;;;;;;;;;;;;;;;;5082048;28;19968;-79
2021/11/30 10:57:39;;;;;;;;;;;;;;;;;;5080552;28;19924;-80
2021/11/30 11:00:07;;;;;;;;;;;;;;;;;;5075792;28;20370;-78
2021/11/30 11:02:49;;;;;;;;;;;;;;;;;;5074745;28;19916;-77
2021/11/30 11:05:20;;;;;;;;;;;;;;;;;;5090498;28;19927;-77
2021/11/30 11:07:59;;;;;;;;;;;;;;;;;;5095158;28;19916;-77
2021/11/30 11:10:26;;;;;;;;;;;;;;;;;;5096031;28;19923;-75
2021/11/30 11:12:51;;;;;;;;;;;;;;;;;;5094798;28;19923;-77
2021/11/30 11:15:35;;;;;;;;;;;;;;;;;;5095411;28;19916;-77
2021/11/30 11:18:16;;;;;;;;;;;;;;;;;;5095528;28;19923;-77
2021/11/30 11:20:41;;;;;;;;;;;;;;;;;;5095383;28;20285;-77
2021/11/30 11:23:07;;;;;;;;;;;;;;;;;;5096853;28;19916;-77
2021/11/30 11:25:32;;;;;;;;;;;;;;;;;;5096364;28;20445;-77
2021/11/30 11:27:58;;;;;;;;;;;;;;;;;;5095435;28;19924;-77
2021/11/30 11:30:23;;;;;;;;;;;;;;;;;;5096516;28;19932;-75
2021/11/30 11:32:49;;;;;;;;;;;;;;;;;;5095444;28;20018;-75
2021/11/30 11:35:16;;;;;;;;;;;;;;;;;;5096527;28;20004;-77
2021/11/30 11:37:44;;;;;;;;;;;;;;;;;;5095933;28;19920;-77
2021/11/30 11:40:10;;;;;;;;;;;;;;;;;;5096234;28;19916;-77
2021/11/30 11:42:36;;;;;;;;;;;;;;;;;;5096202;28;19916;-77
2021/11/30 11:45:02;;;;;;;;;;;;;;;;;;5095480;28;20396;-77
2021/11/30 11:47:28;;;;;;;;;;;;;;;;;;5096192;28;20127;-77
2021/11/30 11:49:56;;;;;;;;;;;;;;;;;;5094254;28;20348;-77
2021/11/30 11:52:30;;;;;;;;;;;;;;;;;;5096110;28;20262;-77
2021/11/30 11:54:56;;;;;;;;;;;;;;;;;;5094528;28;19916;-77
2021/11/30 11:57:23;;;;;;;;;;;;;;;;;;5095829;28;19916;-77
2021/11/30 11:59:48;;;;;;;;;;;;;;;;;;5095766;28;19916;-77
2021/11/30 12:02:21;;;;;;;;;;;;;;;;;;5095920;28;19923;-77
2021/11/30 12:04:58;;;;;;;;;;;;;;;;;;5095719;28;20013;-77
2021/11/30 12:07:24;;;;;;;;;;;;;;;;;;5095611;28;19917;-77
2021/11/30 12:10:10;;;;;;;;;;;;;;;;;;5095647;28;19916;-74
2021/11/30 12:12:35;;;;;;;;;;;;;;;;;;5095515;28;20049;-77
2021/11/30 12:15:02;;;;;;;;;;;;;;;;;;5095776;28;19966;-76
2021/11/30 12:17:28;;;;;;;;;;;;;;;;;;5095708;28;19922;-77
2021/11/30 12:19:56;;;;;;;;;;;;;;;;;;5095357;28;19962;-77
2021/11/30 12:22:40;;;;;;;;;;;;;;;;;;5095373;28;19916;-76
2021/11/30 12:25:05;;;;;;;;;;;;;;;;;;5095364;28;19920;-76
2021/11/30 12:27:31;;;;;;;;;;;;;;;;;;5095257;28;19969;-77
2021/11/30 12:29:56;;;;;;;;;;;;;;;;;;5095510;28;19916;-77
2021/11/30 12:32:28;;;;;;;;;;;;;;;;;;5095430;28;19916;-77
2021/11/30 12:35:00;;;;;;;;;;;;;;;;;;5095117;28;20003;-77
2021/11/30 12:37:27;;;;;;;;;;;;;;;;;;5095239;28;19922;-77
2021/11/30 12:39:57;;;;;;;;;;;;;;;;;;5095231;28;19920;-77
2021/11/30 12:42:23;;;;;;;;;;;;;;;;;;5095134;28;19916;-77
2021/11/30 12:44:49;;;;;;;;;;;;;;;;;;5094688;28;20027;-77
2021/11/30 12:47:19;;;;;;;;;;;;;;;;;;5094984;28;20324;-77
2021/11/30 12:49:45;;;;;;;;;;;;;;;;;;5093828;28;20381;-77
2021/11/30 12:52:14;;;;;;;;;;;;;;;;;;5094951;28;19998;-77
2021/11/30 12:54:41;;;;;;;;;;;;;;;;;;5094867;28;20405;-77
2021/11/30 12:57:07;;;;;;;;;;;;;;;;;;5095058;28;19923;-77
2021/11/30 12:59:42;;;;;;;;;;;;;;;;;;5094843;28;19969;-77
2021/11/30 13:02:10;;;;;;;;;;;;;;;;;;5093815;28;20297;-77
2021/11/30 13:04:36;;;;;;;;;;;;;;;;;;5094544;28;19916;-77
2021/11/30 13:07:09;;;;;;;;;;;;;;;;;;5095064;28;19977;-77
2021/11/30 13:09:42;;;;;;;;;;;;;;;;;;5094597;28;20010;-77
2021/11/30 13:12:07;;;;;;;;;;;;;;;;;;5094717;28;20315;-77
2021/11/30 13:14:37;;;;;;;;;;;;;;;;;;5094480;28;19962;-77
2021/11/30 13:17:02;;;;;;;;;;;;;;;;;;5094560;28;19916;-77
2021/11/30 13:19:35;;;;;;;;;;;;;;;;;;5094462;28;20026;-77
2021/11/30 13:22:00;;;;;;;;;;;;;;;;;;5094315;28;19923;-77
2021/11/30 13:24:34;;;;;;;;;;;;;;;;;;5093156;28;20293;-77
2021/11/30 13:27:09;;;;;;;;;;;;;;;;;;5093112;28;19916;-76
2021/11/30 13:29:34;;;;;;;;;;;;;;;;;;5094518;28;19916;-76
2021/11/30 13:32:00;;;;;;;;;;;;;;;;;;5094456;28;19916;-75
2021/11/30 13:34:26;;;;;;;;;;;;;;;;;;5093473;28;20054;-75
2021/11/30 13:36:51;;;;;;;;;;;;;;;;;;5094207;28;20007;-76
2021/11/30 13:39:17;;;;;;;;;;;;;;;;;;5094101;28;19920;-76
2021/11/30 13:41:42;;;;;;;;;;;;;;;;;;5094209;28;20374;-76
2021/11/30 13:44:07;;;;;;;;;;;;;;;;;;5094078;28;20397;-76
2021/11/30 13:46:36;;;;;;;;;;;;;;;;;;5093908;28;19920;-76
2021/11/30 13:49:05;;;;;;;;;;;;;;;;;;5075985;28;20395;-76
2021/11/30 13:51:31;;;;;;;;;;;;;;;;;;5094073;28;19920;-76
2021/11/30 13:53:56;;;;;;;;;;;;;;;;;;5093994;28;19916;-76
2021/11/30 13:56:38;;;;;;;;;;;;;;;;;;5094366;28;19916;-75
2021/11/30 13:59:34;;;;;;;;;;;;;;;;;;5094113;28;19922;-76
2021/11/30 14:02:18;;;;;;;;;;;;;;;;;;5093185;28;19922;-76
2021/11/30 14:04:43;;;;;;;;;;;;;;;;;;5093550;28;19920;-77
2021/11/30 14:07:08;;;;;;;;;;;;;;;;;;5092991;28;19916;-77
2021/11/30 14:09:45;;;;;;;;;;;;;;;;;;5093880;28;19916;-77
2021/11/30 14:12:13;;;;;;;;;;;;;;;;;;5094001;28;19916;-77
2021/11/30 14:14:43;;;;;;;;;;;;;;;;;;5097517;28;19927;-77
2021/11/30 14:17:09;;;;;;;;;;;;;;;;;;5097644;28;19920;-77
2021/11/30 14:19:34;;;;;;;;;;;;;;;;;;5097892;28;19916;-77
2021/11/30 14:22:01;;;;;;;;;;;;;;;;;;5097695;28;19939;-77
2021/11/30 14:24:26;;;;;;;;;;;;;;;;;;5086069;28;20011;-77
2021/11/30 14:26:52;;;;;;;;;;;;;;;;;;5087774;28;19948;-77
2021/11/30 14:29:18;;;;;;;;;;;;;;;;;;5087421;28;19916;-77
2021/11/30 14:31:57;;;;;;;;;;;;;;;;;;5083328;28;19996;-77
2021/11/30 14:34:26;;;;;;;;;;;;;;;;;;5077325;28;20317;-77
2021/11/30 14:36:51;;;;;;;;;;;;;;;;;;5092492;28;19916;-77
2021/11/30 14:39:23;;;;;;;;;;;;;;;;;;5098690;28;20354;-82
2021/11/30 14:41:48;;;;;;;;;;;;;;;;;;5099989;28;19920;-80
2021/11/30 14:44:31;;;;;;;;;;;;;;;;;;5099985;28;19920;-80
2021/11/30 14:46:57;;;;;;;;;;;;;;;;;;5099870;28;19920;-80
2021/11/30 14:49:23;;;;;;;;;;;;;;;;;;5087103;28;19916;-80
2021/11/30 14:51:48;;;;;;;;;;;;;;;;;;5087884;28;19921;-80
2021/11/30 14:54:16;;;;;;;;;;;;;;;;;;5081367;28;20026;-80
2021/11/30 14:56:42;;;;;;;;;;;;;;;;;;5080281;28;19923;-80
2021/11/30 14:59:08;;;;;;;;;;;;;;;;;;5080130;28;19963;-80
2021/11/30 15:01:43;;;;;;;;;;;;;;;;;;5079883;28;19924;-80
2021/11/30 15:04:09;;;;;;;;;;;;;;;;;;5077656;28;19920;-79
2021/11/30 15:06:37;;;;;;;;;;;;;;;;;;5078841;28;19920;-80
2021/11/30 15:09:07;;;;;;;;;;;;;;;;;;5078990;28;19916;-80
2021/11/30 15:11:37;;;;;;;;;;;;;;;;;;5079777;28;19971;-80
2021/11/30 15:14:07;;;;;;;;;;;;;;;;;;5079683;28;19916;-80
2021/11/30 15:16:42;;;;;;;;;;;;;;;;;;5079034;28;20384;-80
2021/11/30 15:19:07;;;;;;;;;;;;;;;;;;5079252;28;19917;-80
2021/11/30 15:21:33;;;;;;;;;;;;;;;;;;5081017;28;19916;-80
2021/11/30 15:23:58;;;;;;;;;;;;;;;;;;5079629;28;19916;-80
2021/11/30 15:26:30;;;;;;;;;;;;;;;;;;5080918;28;19921;-80
2021/11/30 15:28:55;;;;;;;;;;;;;;;;;;5081380;28;19920;-80
2021/11/30 15:31:21;;;;;;;;;;;;;;;;;;5080513;28;19916;-80
2021/11/30 15:33:48;;;;;;;;;;;;;;;;;;5094872;28;19955;-80
2021/11/30 15:36:14;;;;;;;;;;;;;;;;;;5120103;28;19916;-80
2021/11/30 15:38:39;;;;;;;;;;;;;;;;;;5120595;28;19939;-80
2021/11/30 15:41:04;;;;;;;;;;;;;;;;;;5107475;28;19916;-81
2021/11/30 15:43:30;;;;;;;;;;;;;;;;;;5078724;28;19913;-81
2021/11/30 15:45:55;;;;;;;;;;;;;;;;;;5078605;28;19925;-81
2021/11/30 15:48:20;;;;;;;;;;;;;;;;;;5078114;28;19978;-79
2021/11/30 15:50:46;;;;;;;;;;;;;;;;;;5079376;28;19966;-81
2021/11/30 15:53:11;;;;;;;;;;;;;;;;;;5079176;28;19916;-80
2021/11/30 15:57:22;;;;;;;;;;;;;;;;;;5078237;28;19999;-79
2021/11/30 15:58:22;;;;;;;;;;;;;;;;;;5078712;28;19913;-81
2021/11/30 16:00:48;;;;;;;;;;;;;;;;;;5076998;28;19923;-82
2021/11/30 16:03:13;;;;;;;;;;;;;;;;;;5079972;28;19916;-83
2021/11/30 16:05:39;;;;;;;;;;;;;;;;;;5080185;28;19920;-83
2021/11/30 16:08:04;;;;;;;;;;;;;;;;;;5082704;28;19923;-81
2021/11/30 16:10:29;;;;;;;;;;;;;;;;;;5091251;28;19947;-81
2021/11/30 16:12:55;;;;;;;;;;;;;;;;;;5124793;28;19951;-81
2021/11/30 16:15:20;;;;;;;;;;;;;;;;;;5105359;28;19923;-81
2021/11/30 16:17:46;;;;;;;;;;;;;;;;;;5090793;28;20401;-81
2021/11/30 16:20:11;;;;;;;;;;;;;;;;;;5087852;28;19920;-81
2021/11/30 16:22:39;;;;;;;;;;;;;;;;;;5093463;28;19916;-81
2021/11/30 16:25:04;;;;;;;;;;;;;;;;;;5093019;28;19920;-81
2021/11/30 16:27:30;;;;;;;;;;;;;;;;;;5094352;28;19923;-80
2021/11/30 16:29:55;;;;;;;;;;;;;;;;;;5089246;28;20290;-81
2021/11/30 16:32:21;;;;;;;;;;;;;;;;;;5091155;28;20080;-81
2021/11/30 16:34:47;;;;;;;;;;;;;;;;;;5088455;28;19917;-81
2021/11/30 16:37:12;;;;;;;;;;;;;;;;;;5097244;28;19916;-81
2021/11/30 16:39:38;;;;;;;;;;;;;;;;;;5095839;28;19927;-81
2021/11/30 16:42:03;;;;;;;;;;;;;;;;;;5106145;28;19920;-81
2021/11/30 16:44:29;;;;;;;;;;;;;;;;;;5101171;28;20358;-80
2021/11/30 16:46:54;;;;;;;;;;;;;;;;;;5101387;28;19920;-80
2021/11/30 16:49:19;;;;;;;;;;;;;;;;;;5101747;28;19919;-80
2021/11/30 16:51:45;;;;;;;;;;;;;;;;;;5100058;28;19916;-82
2021/11/30 16:54:11;;;;;;;;;;;;;;;;;;5105806;28;19967;-82